createdAt,value
2022-10-27T00:01:54.448Z,5.25
2022-10-27T00:06:58.259Z,4.37
2022-10-27T00:12:02.079Z,5.40
2022-10-27T00:17:07.280Z,5.47
2022-10-27T00:22:11.083Z,5.65
2022-10-27T00:27:14.861Z,5.57
2022-10-27T00:32:20.042Z,5.50
2022-10-27T00:37:23.840Z,5.63
2022-10-27T00:42:27.637Z,5.22
2022-10-27T00:47:36.193Z,5.88
2022-10-27T00:52:42.867Z,5.35
2022-10-27T00:57:48.778Z,5.35
2022-10-27T01:08:04.406Z,6.38
2022-10-27T01:13:08.288Z,6.90
2022-10-27T01:18:21.023Z,5.97
2022-10-27T01:23:33.903Z,6.82
2022-10-27T01:28:55.794Z,5.93
2022-10-27T01:34:05.079Z,5.70
2022-10-27T01:39:13.455Z,5.00
2022-10-27T01:44:22.337Z,5.22
2022-10-27T01:49:36.054Z,5.22
2022-10-27T01:54:42.154Z,5.60
2022-10-27T02:00:01.307Z,4.85
2022-10-27T02:05:09.157Z,5.18
2022-10-27T02:10:18.958Z,5.40
2022-10-27T02:15:29.883Z,5.45
2022-10-27T02:20:38.232Z,5.82
2022-10-27T02:25:45.494Z,5.70
2022-10-27T02:30:49.402Z,5.85
2022-10-27T02:35:54.734Z,5.50
2022-10-27T02:40:58.525Z,4.33
2022-10-27T02:46:02.308Z,5.63
2022-10-27T02:51:07.811Z,6.38
2022-10-27T02:56:12.550Z,6.00
2022-10-27T03:01:16.353Z,6.38
2022-10-27T03:06:21.606Z,5.63
2022-10-27T03:11:25.381Z,5.65
2022-10-27T03:16:29.134Z,6.43
2022-10-27T03:21:34.291Z,5.93
2022-10-27T03:26:38.051Z,7.43
2022-10-27T03:31:44.395Z,8.20
2022-10-27T03:36:49.611Z,8.15
2022-10-27T03:41:53.415Z,8.73
2022-10-27T03:46:57.193Z,8.65
2022-10-27T03:52:02.577Z,7.95
2022-10-27T03:57:06.353Z,7.83
2022-10-27T04:02:10.380Z,7.90
2022-10-27T04:07:15.605Z,7.82
2022-10-27T04:12:19.389Z,7.47
2022-10-27T04:17:23.176Z,7.90
2022-10-27T04:22:28.335Z,8.13
2022-10-27T04:27:32.108Z,7.82
2022-10-27T04:32:36.335Z,8.57
2022-10-27T04:37:41.550Z,8.50
2022-10-27T04:42:48.591Z,7.65
2022-10-27T04:47:52.814Z,8.60
2022-10-27T04:52:59.941Z,8.10
2022-10-27T04:58:06.865Z,8.32
2022-10-27T05:03:12.349Z,7.85
2022-10-27T05:08:17.567Z,7.63
2022-10-27T05:13:21.359Z,7.20
2022-10-27T05:18:25.123Z,10.80
2022-10-27T05:23:30.290Z,12.30
2022-10-27T05:28:34.071Z,10.55
2022-10-27T05:33:37.830Z,8.82
2022-10-27T05:38:42.982Z,9.27
2022-10-27T05:43:48.381Z,6.00
2022-10-27T05:48:52.248Z,8.87
2022-10-27T05:53:58.067Z,9.20
2022-10-27T05:59:01.895Z,8.95
2022-10-27T06:04:06.083Z,9.23
2022-10-27T06:09:11.320Z,10.38
2022-10-27T06:14:15.148Z,11.77
2022-10-27T06:19:18.943Z,10.32
2022-10-27T06:24:24.121Z,10.35
2022-10-27T06:29:28.058Z,9.77
2022-10-27T06:34:31.900Z,8.77
2022-10-27T06:39:37.188Z,8.38
2022-10-27T06:44:41.064Z,8.83
2022-10-27T06:49:44.870Z,7.63
2022-10-27T06:54:54.333Z,6.65
2022-10-27T06:59:58.994Z,7.07
2022-10-27T07:05:02.794Z,6.88
2022-10-27T07:10:09.506Z,7.50
2022-10-27T07:15:13.258Z,6.95
2022-10-27T07:20:17.032Z,7.78
2022-10-27T07:25:22.123Z,8.32
2022-10-27T07:30:27.529Z,8.07
2022-10-27T07:35:31.638Z,7.80
2022-10-27T07:40:36.870Z,7.95
2022-10-27T07:45:41.913Z,8.13
2022-10-27T07:50:46.444Z,7.77
2022-10-27T07:55:52.504Z,7.47
2022-10-27T08:06:03.158Z,5.60
2022-10-27T08:11:08.444Z,5.63
2022-10-27T08:16:12.255Z,4.63
2022-10-27T08:21:16.028Z,4.90
2022-10-27T08:26:21.679Z,5.07
2022-10-27T08:31:25.551Z,5.45
2022-10-27T08:36:29.416Z,5.05
2022-10-27T08:41:39.435Z,4.28
2022-10-27T08:46:46.571Z,4.82
2022-10-27T08:51:51.692Z,4.78
2022-10-27T08:56:58.741Z,4.83
2022-10-27T09:02:15.007Z,4.60
2022-10-27T09:07:23.499Z,4.38
2022-10-27T09:12:47.532Z,4.32
2022-10-27T09:17:54.787Z,4.10
2022-10-27T09:23:02.506Z,3.70
2022-10-27T09:28:14.317Z,3.67
2022-10-27T09:33:21.388Z,3.13
2022-10-27T09:38:27.542Z,3.90
2022-10-27T09:43:33.924Z,2.80
2022-10-27T09:48:37.764Z,3.50
2022-10-27T09:53:43.837Z,4.07
2022-10-27T09:58:57.235Z,3.35
2022-10-27T10:04:08.877Z,2.90
2022-10-27T10:09:24.382Z,3.15
2022-10-27T10:14:29.595Z,2.88
2022-10-27T10:19:33.377Z,2.83
2022-10-27T10:24:37.599Z,2.90
2022-10-27T10:29:48.165Z,3.27
2022-10-27T10:34:53.407Z,2.60
2022-10-27T10:40:10.974Z,3.22
2022-10-27T10:45:21.495Z,2.60
2022-10-27T10:50:25.320Z,3.13
2022-10-27T10:55:31.375Z,2.83
2022-10-27T11:00:36.892Z,3.00
2022-10-27T11:05:42.502Z,2.42
2022-10-27T11:10:46.431Z,3.00
2022-10-27T11:15:55.484Z,2.50
2022-10-27T11:21:02.929Z,2.60
2022-10-27T11:26:07.223Z,2.65
2022-10-27T11:31:19.041Z,2.60
2022-10-27T11:36:26.389Z,2.10
2022-10-27T11:41:34.275Z,4.03
2022-10-27T11:46:43.503Z,14.85
2022-10-27T11:51:50.352Z,3.13
2022-10-27T11:57:11.221Z,2.65
2022-10-27T12:02:39.609Z,2.55
2022-10-27T12:07:52.842Z,2.35
2022-10-27T12:13:01.418Z,3.63
2022-10-27T12:18:12.715Z,2.30
2022-10-27T12:23:20.011Z,2.75
2022-10-27T12:28:26.864Z,2.63
2022-10-27T12:33:35.450Z,2.25
2022-10-27T12:38:44.566Z,2.38
2022-10-27T12:43:53.345Z,2.45
2022-10-27T12:49:06.492Z,2.30
2022-10-27T12:54:21.201Z,3.13
2022-10-27T13:04:47.255Z,2.92
2022-10-27T13:10:21.556Z,2.35
2022-10-27T13:15:57.120Z,2.92
2022-10-27T13:21:08.631Z,3.17
2022-10-27T13:26:20.600Z,2.33
2022-10-27T13:31:25.527Z,2.72
2022-10-27T13:36:30.973Z,3.20
2022-10-27T13:41:51.598Z,2.60
2022-10-27T13:47:19.717Z,7.15
2022-10-27T13:52:34.252Z,3.25
2022-10-27T13:58:05.088Z,3.08
2022-10-27T14:03:21.499Z,3.03
2022-10-27T14:08:29.157Z,3.70
2022-10-27T14:13:36.878Z,3.80
2022-10-27T14:18:40.929Z,3.42
2022-10-27T14:23:46.235Z,3.63
2022-10-27T14:28:49.997Z,4.85
2022-10-27T14:33:54.919Z,5.30
2022-10-27T14:39:06.577Z,4.93
2022-10-27T14:44:18.445Z,5.05
2022-10-27T14:49:30.797Z,4.20
2022-10-27T14:54:39.335Z,5.60
2022-10-27T14:59:46.680Z,5.85
2022-10-27T15:04:50.487Z,3.83
2022-10-27T15:09:55.634Z,5.03
2022-10-27T15:15:02.934Z,6.00
2022-10-27T15:20:08.720Z,7.78
2022-10-27T15:25:15.719Z,9.82
2022-10-27T15:30:21.104Z,11.82
2022-10-27T15:35:30.365Z,28.92
2022-10-27T15:40:45.280Z,14.30
2022-10-27T15:45:50.936Z,10.67
2022-10-27T15:50:59.009Z,11.10
2022-10-27T15:56:05.948Z,12.25
2022-10-27T16:01:13.818Z,12.57
2022-10-27T16:06:22.379Z,5.95
2022-10-27T16:11:31.104Z,17.67
2022-10-27T16:16:36.819Z,15.90
2022-10-27T16:21:40.620Z,14.00
2022-10-27T16:26:45.912Z,5.95
2022-10-27T16:31:50.649Z,7.07
2022-10-27T16:36:54.425Z,10.00
2022-10-27T16:41:59.741Z,12.57
2022-10-27T16:47:08.023Z,9.90
2022-10-27T16:52:11.842Z,7.15
2022-10-27T16:57:17.058Z,7.40
2022-10-27T17:02:20.940Z,14.93
2022-10-27T17:07:24.787Z,13.95
2022-10-27T17:12:30.147Z,16.45
2022-10-27T17:17:34.926Z,13.60
2022-10-27T17:22:38.702Z,11.50
2022-10-27T17:27:43.876Z,10.77
2022-10-27T17:32:48.922Z,11.40
2022-10-27T17:37:52.909Z,8.95
2022-10-27T17:42:58.366Z,8.90
2022-10-27T17:48:02.152Z,10.90
2022-10-27T17:53:05.916Z,10.75
2022-10-27T17:58:11.431Z,8.65
2022-10-27T18:03:15.211Z,10.63
2022-10-27T18:08:19.021Z,9.88
2022-10-27T18:13:24.272Z,11.93
2022-10-27T18:18:28.230Z,10.20
2022-10-27T18:23:32.038Z,11.30
2022-10-27T18:33:46.224Z,14.50
2022-10-27T18:38:53.729Z,11.80
2022-10-27T18:43:59.051Z,10.05
2022-10-27T18:49:04.195Z,11.17
2022-10-27T18:54:10.451Z,9.30
2022-10-27T18:59:15.795Z,12.68
2022-10-27T19:04:19.574Z,12.60
2022-10-27T19:09:23.368Z,13.70
2022-10-27T19:14:28.529Z,11.73
2022-10-27T19:19:32.294Z,11.57
2022-10-27T19:24:36.115Z,11.70
2022-10-27T19:29:41.374Z,10.75
2022-10-27T19:34:49.077Z,11.10
2022-10-27T19:39:53.926Z,11.85
2022-10-27T19:44:59.556Z,11.63
2022-10-27T19:50:03.315Z,10.98
2022-10-27T19:55:08.115Z,11.23
2022-10-27T20:00:14.845Z,11.70
2022-10-27T20:05:23.651Z,9.82
2022-10-27T20:10:27.512Z,10.38
2022-10-27T20:15:32.709Z,11.90
2022-10-27T20:20:36.490Z,7.15
2022-10-27T20:25:40.284Z,10.32
2022-10-27T20:30:45.487Z,10.35
2022-10-27T20:35:49.568Z,10.07
2022-10-27T20:40:53.344Z,10.93
2022-10-27T20:45:58.652Z,11.55
2022-10-27T20:51:03.856Z,10.87
2022-10-27T20:56:08.716Z,11.90
2022-10-27T21:01:18.312Z,14.30
2022-10-27T21:06:22.139Z,17.55
2022-10-27T21:11:26.430Z,18.70
2022-10-27T21:16:32.030Z,21.27
2022-10-27T21:21:35.882Z,22.60
2022-10-27T21:26:39.639Z,23.65
2022-10-27T21:31:46.739Z,23.70
2022-10-27T21:36:50.571Z,23.65
2022-10-27T21:41:54.359Z,23.73
2022-10-27T21:46:59.815Z,24.65
2022-10-27T21:52:03.634Z,23.03
2022-10-27T21:57:07.555Z,22.77
2022-10-27T22:02:12.775Z,25.55
2022-10-27T22:07:16.616Z,27.43
2022-10-27T22:12:20.435Z,29.85
2022-10-27T22:17:25.669Z,31.15
2022-10-27T22:22:29.436Z,28.10
2022-10-27T22:27:33.452Z,23.30
2022-10-27T22:32:38.655Z,23.52
2022-10-27T22:37:42.638Z,21.92
2022-10-27T22:42:46.404Z,22.02
2022-10-27T22:47:51.812Z,21.30
2022-10-27T22:52:55.796Z,19.15
2022-10-27T22:57:59.584Z,18.55
2022-10-27T23:03:05.036Z,19.08
2022-10-27T23:08:08.830Z,18.53
2022-10-27T23:13:12.616Z,19.10
2022-10-27T23:18:17.814Z,21.33
2022-10-27T23:23:21.592Z,20.98
2022-10-27T23:28:25.855Z,19.55
2022-10-27T23:33:31.241Z,20.80
2022-10-27T23:38:35.021Z,20.10
2022-10-27T23:43:39.200Z,19.52
2022-10-27T23:48:44.415Z,19.77
2022-10-27T23:53:48.434Z,22.77
2022-10-27T23:58:52.232Z,24.80
